Time;durP1;ratioP1;P1;durP2;ratioP2;P2;SDS_P1;SDS_P2;PMS_P1;PMS_P2;Temp;Humidity;BMP_temperature;BMP_pressure;BME280_temperature;BME280_humidity;BME280_pressure;Samples;Min_cycle;Max_cycle;Signal;HPM_P1;HPM_P2
2022/01/23 00:00:32;;;;;;;;;44.00;40.00;;;;;7.21;66.13;102802.84;5075334;28;45455;-53
2022/01/23 00:03:02;;;;;;;;;54.00;44.00;;;;;7.26;65.80;102806.41;5075496;27;45490;-55
2022/01/23 00:05:35;;;;;;;;;44.50;38.50;;;;;7.17;65.59;102791.44;5074962;28;45405;-49
2022/01/23 00:08:02;;;;;;;;;44.00;40.25;;;;;7.26;65.40;102804.66;5075432;27;45506;-52
2022/01/23 00:10:27;;;;;;;;;49.25;40.75;;;;;7.23;65.51;102802.00;5075352;28;46950;-56
2022/01/23 00:12:55;;;;;;;;;42.75;39.50;;;;;7.19;65.32;102796.69;5075170;28;45440;-52
2022/01/23 00:18:04;;;;;;;;;41.75;36.50;;;;;7.06;65.48;102796.50;5074750;28;45387;-54
2022/01/23 00:20:29;;;;;;;;;46.00;39.00;;;;;7.10;65.32;102791.34;5075315;28;45418;-54
2022/01/23 00:22:58;;;;;;;;;54.00;42.00;;;;;7.15;65.27;102792.28;5075401;28;45537;-53
2022/01/23 00:30:57;;;;;;;;;46.50;40.25;;;;;7.18;65.53;102793.22;5078424;27;45694;-52
2022/01/23 00:33:23;;;;;;;;;41.75;38.00;;;;;7.16;65.18;102789.69;5078811;28;45389;-53
2022/01/23 00:35:49;;;;;;;;;45.25;41.00;;;;;7.16;65.40;102779.22;5078786;28;45474;-54
2022/01/23 00:38:16;;;;;;;;;48.75;40.25;;;;;7.15;65.21;102787.06;5060228;28;45475;-54
2022/01/23 00:40:43;;;;;;;;;49.00;41.00;;;;;7.15;65.58;102777.47;5078412;28;46625;-53
2022/01/23 00:43:17;;;;;;;;;51.00;40.00;;;;;7.14;65.53;102778.31;5078508;27;45438;-53
2022/01/23 00:45:52;;;;;;;;;49.25;38.25;;;;;7.19;65.28;102779.25;5078650;27;45413;-54
2022/01/23 00:48:23;;;;;;;;;53.75;44.75;;;;;7.13;65.19;102771.31;5078491;27;45442;-53
2022/01/23 00:50:49;;;;;;;;;43.50;38.00;;;;;7.11;65.40;102780.00;5059370;27;47208;-54
2022/01/23 00:53:14;;;;;;;;;56.25;47.25;;;;;7.10;65.72;102776.53;5078220;28;45477;-55
2022/01/23 00:55:45;;;;;;;;;45.75;39.75;;;;;7.12;65.42;102779.13;5078432;28;45380;-52
2022/01/23 00:58:11;;;;;;;;;49.50;41.00;;;;;7.16;65.03;102776.59;5078538;28;45414;-54
2022/01/23 01:00:38;;;;;;;;;52.50;45.00;;;;;7.15;65.18;102766.13;5077678;27;45525;-54
2022/01/23 01:03:04;;;;;;;;;46.50;40.50;;;;;7.15;65.65;102768.75;5078244;28;45403;-55
2022/01/23 01:05:30;;;;;;;;;47.00;39.00;;;;;7.13;65.52;102767.84;5078331;27;45369;-52
2022/01/23 01:07:57;;;;;;;;;52.25;40.50;;;;;7.11;65.07;102761.69;5088973;27;45557;-54
2022/01/23 01:10:34;;;;;;;;;45.75;40.75;;;;;7.09;65.37;102756.41;5081947;27;46575;-52
2022/01/23 01:13:02;;;;;;;;;48.75;40.75;;;;;7.04;65.37;102750.28;5083479;27;45768;-60
2022/01/23 01:15:36;;;;;;;;;47.00;40.75;;;;;7.15;65.19;102766.13;5078006;27;45451;-52
2022/01/23 01:31:49;;;;;;;;;43.25;39.25;;;;;7.03;65.81;102769.44;5098214;27;45455;-55
2022/01/23 01:34:25;;;;;;;;;57.50;44.75;;;;;7.04;65.82;102771.22;5096053;27;45538;-53
2022/01/23 01:36:52;;;;;;;;;44.75;40.25;;;;;7.04;65.62;102755.50;5078135;28;45455;-55
2022/01/23 01:39:24;;;;;;;;;48.50;40.75;;;;;7.07;65.47;102758.16;5077721;28;45484;-55
2022/01/23 01:41:51;;;;;;;;;49.25;41.00;;;;;7.03;65.48;102759.84;5077435;27;46196;-53
2022/01/23 01:44:17;;;;;;;;;42.00;38.00;;;;;7.01;65.41;102761.56;5078683;27;45429;-55
2022/01/23 01:46:43;;;;;;;;;43.50;39.75;;;;;7.04;65.92;102763.34;5079773;27;45654;-55
2022/01/23 01:49:09;;;;;;;;;48.75;40.25;;;;;7.01;65.35;102758.06;5086612;27;45443;-59
2022/01/23 01:51:35;;;;;;;;;50.25;42.50;;;;;7.00;65.13;102751.94;5058981;28;47264;-56
2022/01/23 01:54:08;;;;;;;;;46.75;40.50;;;;;7.06;65.47;102759.88;5077264;27;45475;-55
2022/01/23 01:57:04;;;;;;;;;50.25;40.50;;;;;7.05;65.08;102752.03;5096853;27;45417;-54
2022/01/23 02:10:27;;;;;;;;;41.25;37.75;;;;;7.00;65.29;102751.06;5092022;27;45350;-55
2022/01/23 02:13:03;;;;;;;;;49.00;42.25;;;;;7.03;65.30;102756.34;5096129;27;46901;-55
2022/01/23 02:56:46;;;;;;;;;36.00;33.25;;;;;6.95;65.00;102726.59;5086420;27;46007;-59
2022/01/23 02:59:19;;;;;;;;;36.50;31.00;;;;;6.97;65.29;102717.03;5083964;27;45583;-53
2022/01/23 03:02:02;;;;;;;;;40.50;35.75;;;;;6.95;65.28;102708.28;5074204;27;45470;-53
2022/01/23 03:04:28;;;;;;;;;31.75;29.50;;;;;6.93;64.71;102713.50;5097012;27;45530;-57
2022/01/23 03:15:26;;;;;;;;;36.50;30.75;;;;;6.91;64.49;102701.25;5095796;27;45422;-56
2022/01/23 03:31:33;;;;;;;;;40.75;37.00;;;;;6.83;64.56;102701.16;5088752;27;45454;-57
2022/01/23 03:33:59;;;;;;;;;39.00;37.50;;;;;6.86;64.76;102701.19;5066461;27;45431;-56
2022/01/23 03:36:25;;;;;;;;;40.50;35.75;;;;;6.90;64.54;102696.88;5075812;27;45399;-57
2022/01/23 03:38:51;;;;;;;;;34.25;30.50;;;;;6.88;64.62;102703.81;5075872;27;45650;-53
2022/01/23 03:41:17;;;;;;;;;38.25;33.75;;;;;6.76;64.73;102684.47;5066168;27;45506;-56
2022/01/23 03:43:42;;;;;;;;;34.50;28.50;;;;;6.82;64.56;102692.44;5095939;27;45451;-52
2022/01/23 03:51:51;;;;;;;;;40.75;37.75;;;;;6.83;64.99;102693.31;5075799;27;45437;-55
2022/01/23 03:54:16;;;;;;;;;41.75;37.75;;;;;6.82;64.99;102695.03;5079682;27;45693;-55
2022/01/23 03:56:41;;;;;;;;;43.00;35.50;;;;;6.81;64.89;102690.66;5095944;27;45484;-55
2022/01/23 03:59:07;;;;;;;;;39.75;35.50;;;;;6.83;64.60;102691.56;5092056;27;45409;-56
2022/01/23 04:01:32;;;;;;;;;34.00;34.00;;;;;6.81;65.10;102693.28;5080985;27;45316;-58
2022/01/23 04:04:01;;;;;;;;;41.50;37.25;;;;;6.81;65.23;102692.41;5099901;27;45352;-55
2022/01/23 04:06:28;;;;;;;;;31.25;29.00;;;;;6.81;64.89;102682.81;5089567;27;45537;-59
2022/01/23 04:08:54;;;;;;;;;38.00;33.00;;;;;6.81;64.57;102682.81;5079346;27;46066;-57
2022/01/23 04:11:20;;;;;;;;;38.00;32.00;;;;;6.78;65.04;102682.78;5085960;27;45599;-59
2022/01/23 04:13:52;;;;;;;;;40.25;32.75;;;;;6.76;64.48;102679.25;5044522;28;45460;-56
2022/01/23 04:48:54;;;;;;;;;32.50;29.75;;;;;6.55;65.28;102685.03;5078559;27;45478;-55
2022/01/23 04:59:47;;;;;;;;;37.00;33.00;;;;;6.58;65.54;102685.13;5098705;27;45294;-57
2022/01/23 05:04:47;;;;;;;;;38.50;33.50;;;;;6.57;64.87;102678.09;5083265;27;45445;-53
2022/01/23 05:07:14;;;;;;;;;35.50;33.75;;;;;6.67;64.96;102689.59;5079801;27;45438;-57
2022/01/23 05:09:40;;;;;;;;;39.75;34.00;;;;;6.67;65.09;102688.72;5097884;27;45469;-55
2022/01/23 05:12:08;;;;;;;;;41.50;35.75;;;;;6.70;64.68;102689.63;5087285;27;46004;-54
2022/01/23 05:14:38;;;;;;;;;34.75;29.50;;;;;6.68;64.21;102691.34;5080158;27;45433;-57
2022/01/23 05:17:05;;;;;;;;;38.00;34.00;;;;;6.60;64.87;102691.22;5089613;27;45534;-54
2022/01/23 05:19:32;;;;;;;;;37.50;30.50;;;;;6.63;64.75;102682.53;5078096;27;45428;-59
2022/01/23 05:22:17;;;;;;;;;34.25;31.25;;;;;6.59;64.98;102691.22;5077881;28;45414;-55
2022/01/23 05:24:49;;;;;;;;;34.50;33.75;;;;;6.64;64.95;102692.16;5081492;27;45366;-51
2022/01/23 05:27:15;;;;;;;;;40.75;31.25;;;;;6.67;65.53;102692.22;5098446;27;45460;-55
2022/01/23 05:29:40;;;;;;;;;33.25;29.25;;;;;6.64;64.87;102686.94;5098399;27;45405;-56
2022/01/23 05:32:09;;;;;;;;;43.25;35.00;;;;;6.62;65.10;102699.97;5098271;27;46400;-57
2022/01/23 05:34:34;;;;;;;;;30.25;28.75;;;;;6.63;64.63;102695.63;5080829;27;45410;-57
2022/01/23 05:37:00;;;;;;;;;28.00;27.00;;;;;6.57;64.88;102690.31;5077183;28;45349;-55
2022/01/23 05:39:27;;;;;;;;;33.25;28.50;;;;;6.48;64.40;102683.22;5072897;27;45421;-53
2022/01/23 05:42:03;;;;;;;;;32.50;30.00;;;;;6.44;64.93;102694.47;5078984;27;47438;-56
2022/01/23 05:44:29;;;;;;;;;36.00;27.50;;;;;6.36;64.67;102696.06;5083117;27;45524;-52
2022/01/23 05:46:54;;;;;;;;;30.25;27.25;;;;;6.35;65.18;102695.19;5097159;27;45471;-55
2022/01/23 05:49:19;;;;;;;;;29.00;28.00;;;;;6.39;65.30;102703.97;5098045;27;45711;-55
2022/01/23 05:51:45;;;;;;;;;30.75;28.00;;;;;6.39;65.29;102703.97;5097695;27;45460;-56
2022/01/23 05:54:10;;;;;;;;;30.00;27.75;;;;;6.37;65.39;102698.72;5096561;27;45497;-56
2022/01/23 05:56:35;;;;;;;;;33.50;29.50;;;;;6.34;65.31;102698.69;5097141;27;45504;-52
2022/01/23 05:59:01;;;;;;;;;27.50;24.50;;;;;6.33;65.53;102689.06;5094977;27;45456;-59
2022/01/23 06:01:26;;;;;;;;;29.50;28.75;;;;;6.39;65.51;102702.25;5092028;27;46686;-57
2022/01/23 06:03:51;;;;;;;;;35.75;29.00;;;;;6.35;65.62;102692.59;5096973;27;45432;-57
2022/01/23 06:06:17;;;;;;;;;29.75;28.00;;;;;6.26;65.73;102678.50;5085596;27;45616;-54
2022/01/23 06:08:43;;;;;;;;;37.00;30.50;;;;;6.33;65.90;102698.66;5088035;27;45468;-55
2022/01/23 06:11:08;;;;;;;;;36.00;27.25;;;;;6.27;66.13;102699.44;5076977;28;45475;-56
2022/01/23 06:13:33;;;;;;;;;37.50;28.00;;;;;6.29;65.98;102704.69;5081852;27;48641;-57
2022/01/23 06:16:00;;;;;;;;;32.25;26.75;;;;;6.23;65.73;102701.97;5081059;27;45355;-57
2022/01/23 06:18:25;;;;;;;;;38.25;28.00;;;;;6.24;66.15;102702.00;5095903;27;45874;-57
2022/01/23 06:20:51;;;;;;;;;35.50;27.50;;;;;6.25;66.11;102708.09;5092720;27;45585;-58
2022/01/23 06:23:17;;;;;;;;;38.25;31.75;;;;;6.23;66.03;102702.81;5088399;27;45459;-55
2022/01/23 06:25:44;;;;;;;;;34.25;29.75;;;;;6.23;65.56;102687.16;5091632;27;45367;-54
2022/01/23 06:28:12;;;;;;;;;28.50;25.25;;;;;6.28;65.86;102693.34;5097284;27;45530;-58
2022/01/23 06:30:40;;;;;;;;;27.50;23.75;;;;;6.31;65.95;102696.00;5072242;27;47665;-58
2022/01/23 06:33:06;;;;;;;;;23.50;21.00;;;;;6.35;65.56;102697.81;5076658;28;45538;-56
2022/01/23 06:35:32;;;;;;;;;27.75;20.75;;;;;6.28;65.74;102684.63;5081523;27;45398;-54
2022/01/23 06:37:57;;;;;;;;;27.00;24.00;;;;;6.27;65.15;102693.34;5097315;27;45361;-56
2022/01/23 06:40:23;;;;;;;;;25.50;21.75;;;;;6.31;65.41;102708.19;5096863;27;46478;-55
2022/01/23 06:42:48;;;;;;;;;26.75;20.00;;;;;6.28;65.49;102695.94;5096381;27;45442;-55
2022/01/23 06:45:14;;;;;;;;;25.25;18.50;;;;;6.31;65.05;102700.34;5079910;27;45732;-56
2022/01/23 06:47:39;;;;;;;;;19.50;19.50;;;;;6.31;65.10;102703.84;5076658;27;45374;-56
2022/01/23 06:50:06;;;;;;;;;18.75;15.00;;;;;6.25;65.26;102692.41;5077206;27;47386;-59
2022/01/23 06:52:31;;;;;;;;;20.50;18.25;;;;;6.20;65.34;102697.56;5091344;27;45332;-57
2022/01/23 06:54:56;;;;;;;;;23.50;18.50;;;;;6.16;65.20;102691.41;5096743;27;45460;-57
2022/01/23 06:57:22;;;;;;;;;23.75;19.50;;;;;6.12;65.63;102691.31;5068326;28;45564;-59
2022/01/23 06:59:47;;;;;;;;;25.00;19.00;;;;;6.15;65.29;102702.72;5076479;28;45335;-56
2022/01/23 07:02:12;;;;;;;;;18.50;16.50;;;;;6.21;65.42;102707.19;5077347;27;45365;-52
2022/01/23 07:04:38;;;;;;;;;22.00;17.50;;;;;6.25;65.18;102702.88;5075941;28;45454;-52
2022/01/23 07:07:03;;;;;;;;;19.50;17.00;;;;;6.29;64.95;102704.69;5086507;27;45519;-57
2022/01/23 07:09:29;;;;;;;;;20.75;18.75;;;;;6.34;64.96;102708.22;5076225;27;45448;-55
2022/01/23 07:11:54;;;;;;;;;23.75;21.00;;;;;6.34;64.82;102711.75;5058092;28;45422;-58
2022/01/23 07:14:20;;;;;;;;;19.00;17.25;;;;;6.39;65.12;102719.63;5076222;28;45517;-58
2022/01/23 07:16:45;;;;;;;;;20.00;18.75;;;;;6.33;64.77;102716.94;5084533;27;45537;-57
2022/01/23 07:19:11;;;;;;;;;12.75;12.75;;;;;6.30;64.59;102711.66;5096613;27;46477;-56
2022/01/23 07:21:36;;;;;;;;;16.25;16.25;;;;;6.25;64.88;102716.81;5093410;27;45429;-57
2022/01/23 07:24:02;;;;;;;;;19.00;17.00;;;;;6.22;65.07;102718.50;5096600;27;45479;-56
2022/01/23 07:26:28;;;;;;;;;18.75;15.25;;;;;6.12;65.01;102699.16;5076641;27;45426;-56
2022/01/23 07:28:57;;;;;;;;;19.50;17.50;;;;;6.22;65.19;102713.28;5096046;27;46590;-56
2022/01/23 07:34:05;;;;;;;;;21.50;19.50;;;;;6.23;65.20;102712.41;5084900;27;45499;-56
2022/01/23 07:36:30;;;;;;;;;26.50;20.00;;;;;6.26;64.86;102718.59;5092020;27;45597;-55
2022/01/23 07:38:56;;;;;;;;;16.00;16.00;;;;;6.21;65.60;102704.56;5075695;27;45443;-56
2022/01/23 07:41:21;;;;;;;;;20.00;18.00;;;;;6.27;65.10;102715.09;5080527;27;46070;-56
2022/01/23 07:43:47;;;;;;;;;21.25;17.50;;;;;6.29;65.23;102708.19;5079941;27;45441;-58
2022/01/23 07:46:12;;;;;;;;;21.50;19.25;;;;;6.25;65.09;102705.47;5090095;27;45598;-56
2022/01/23 07:48:38;;;;;;;;;21.75;20.50;;;;;6.26;65.20;102715.06;5078853;27;46344;-53
2022/01/23 07:51:03;;;;;;;;;19.50;16.75;;;;;6.22;65.32;102705.44;5075623;27;45384;-52
2022/01/23 07:53:28;;;;;;;;;22.25;18.00;;;;;6.15;64.59;102702.72;5077487;27;45430;-55
2022/01/23 07:55:54;;;;;;;;;22.75;20.00;;;;;6.09;64.73;102706.94;5086981;27;45516;-56
2022/01/23 07:58:19;;;;;;;;;20.75;18.75;;;;;6.02;64.64;102703.38;5081308;27;46121;-57
2022/01/23 08:00:47;;;;;;;;;18.75;17.00;;;;;6.06;64.81;102710.38;5084317;27;45365;-55
2022/01/23 08:03:12;;;;;;;;;14.00;13.00;;;;;6.12;64.38;102722.69;5094942;27;45588;-53
2022/01/23 08:05:38;;;;;;;;;16.25;16.25;;;;;6.16;64.75;102737.56;5092766;27;45586;-57
2022/01/23 08:08:03;;;;;;;;;22.25;19.00;;;;;6.15;64.69;102731.47;5093882;27;46044;-57
2022/01/23 08:10:29;;;;;;;;;21.50;20.50;;;;;6.19;64.52;102745.44;5058080;27;45538;-54
2022/01/23 08:12:54;;;;;;;;;19.25;18.25;;;;;6.18;64.54;102736.75;5092822;27;45478;-55
2022/01/23 08:15:20;;;;;;;;;19.25;16.75;;;;;6.22;64.92;102727.22;5095347;27;45574;-54
2022/01/23 08:17:45;;;;;;;;;19.00;19.00;;;;;6.15;64.55;102746.25;5090086;27;46415;-52
2022/01/23 08:20:11;;;;;;;;;20.75;16.75;;;;;6.20;64.63;102741.97;5076779;27;45559;-59
2022/01/23 08:22:36;;;;;;;;;16.75;16.25;;;;;6.15;64.20;102752.38;5089990;27;45408;-54
2022/01/23 08:25:02;;;;;;;;;20.75;16.00;;;;;6.03;64.42;102757.34;5091204;27;45525;-51
2022/01/23 08:27:28;;;;;;;;;23.25;20.50;;;;;6.01;64.77;102747.72;5070607;27;45506;-52
2022/01/23 08:29:54;;;;;;;;;19.75;18.00;;;;;6.06;64.57;102752.19;5086595;27;45573;-56
2022/01/23 08:32:19;;;;;;;;;20.00;16.75;;;;;5.99;64.66;102755.53;5076996;27;45348;-54
2022/01/23 08:34:46;;;;;;;;;15.25;15.25;;;;;5.94;65.01;102746.75;5086029;27;45667;-60
2022/01/23 08:37:11;;;;;;;;;13.00;12.50;;;;;6.03;64.50;102757.34;5076409;27;45704;-55
2022/01/23 08:39:38;;;;;;;;;23.00;20.25;;;;;6.05;64.59;102754.78;5091831;27;45662;-58
2022/01/23 08:42:10;;;;;;;;;27.00;23.50;;;;;6.11;64.76;102749.66;5094782;27;45438;-51
2022/01/23 08:44:35;;;;;;;;;24.50;21.50;;;;;6.10;64.61;102742.66;5083137;27;45512;-58
2022/01/23 08:47:03;;;;;;;;;23.50;20.25;;;;;6.16;64.72;102758.47;5090559;27;45979;-53
2022/01/23 08:49:29;;;;;;;;;24.25;21.00;;;;;6.16;64.63;102758.47;5096999;27;45543;-53
2022/01/23 08:51:56;;;;;;;;;24.75;21.25;;;;;6.17;64.29;102744.53;5099323;27;45401;-57
2022/01/23 08:54:23;;;;;;;;;18.50;16.50;;;;;6.22;64.51;102757.69;5098360;27;45567;-57
2022/01/23 08:56:49;;;;;;;;;21.00;16.00;;;;;6.18;64.07;102748.94;5085460;27;45420;-52
2022/01/23 08:59:14;;;;;;;;;17.50;15.25;;;;;6.16;64.31;102758.47;5079374;27;45315;-59
2022/01/23 09:01:40;;;;;;;;;20.00;14.75;;;;;6.13;64.27;102750.59;5078563;27;45484;-57
2022/01/23 09:04:06;;;;;;;;;18.75;18.00;;;;;6.09;64.12;102743.53;5086040;27;45447;-53
2022/01/23 09:06:32;;;;;;;;;17.25;15.00;;;;;6.15;63.89;102754.97;5096712;27;46600;-55
2022/01/23 09:09:00;;;;;;;;;20.50;19.50;;;;;6.13;64.39;102740.13;5081470;27;45466;-56
2022/01/23 09:14:07;;;;;;;;;21.50;18.25;;;;;6.20;64.54;102757.66;5078463;27;45452;-54
2022/01/23 09:16:39;;;;;;;;;24.25;20.00;;;;;6.16;64.47;102761.94;5077427;27;46082;-50
2022/01/23 09:19:06;;;;;;;;;21.00;18.25;;;;;6.17;65.11;102757.59;5060583;28;45539;-56
2022/01/23 09:21:32;;;;;;;;;26.50;18.00;;;;;6.20;64.90;102750.69;5087403;27;45578;-54
2022/01/23 09:23:57;;;;;;;;;16.75;16.75;;;;;6.18;64.67;102759.38;5077759;28;45502;-53
2022/01/23 09:26:23;;;;;;;;;17.75;15.00;;;;;6.15;65.16;102756.69;5091567;27;45717;-53
2022/01/23 09:28:53;;;;;;;;;20.00;18.00;;;;;6.16;64.65;102754.13;5085742;27;45462;-58
2022/01/23 09:31:28;;;;;;;;;20.50;17.25;;;;;6.22;65.12;102758.56;5096445;27;45385;-54
2022/01/23 09:33:54;;;;;;;;;19.25;18.00;;;;;6.21;64.76;102754.22;5083439;27;45642;-51
2022/01/23 09:36:19;;;;;;;;;16.00;14.50;;;;;6.09;64.78;102735.69;5080951;27;46644;-57
2022/01/23 09:38:44;;;;;;;;;22.25;18.75;;;;;6.20;64.99;102768.97;5090312;27;45412;-52
2022/01/23 09:41:10;;;;;;;;;22.75;19.25;;;;;6.10;64.70;102768.78;5077686;27;45469;-54
2022/01/23 09:43:39;;;;;;;;;20.50;17.50;;;;;6.09;65.27;102760.06;5082673;27;45518;-52
2022/01/23 09:46:07;;;;;;;;;21.75;19.75;;;;;6.13;64.88;102774.97;5084700;27;47285;-52
2022/01/23 09:48:34;;;;;;;;;19.75;17.50;;;;;6.11;65.00;102773.19;5086592;27;45502;-52
2022/01/23 09:51:00;;;;;;;;;19.00;17.25;;;;;6.07;64.70;102768.72;5097635;27;45409;-54
2022/01/23 09:53:27;;;;;;;;;22.75;19.00;;;;;6.06;64.85;102766.97;5095696;27;45464;-55
2022/01/23 09:55:58;;;;;;;;;16.00;15.00;;;;;6.06;64.49;102766.97;5085616;27;46309;-56
2022/01/23 09:58:23;;;;;;;;;18.75;15.75;;;;;6.06;64.35;102762.63;5089318;27;45460;-55
2022/01/23 10:00:49;;;;;;;;;14.25;11.50;;;;;6.07;64.63;102761.81;5087492;27;45563;-57
2022/01/23 10:03:19;;;;;;;;;11.50;9.50;;;;;6.06;64.52;102761.75;5093370;27;45381;-58
2022/01/23 10:05:48;;;;;;;;;16.25;14.75;;;;;6.05;64.67;102760.00;5083409;27;45537;-51
2022/01/23 10:08:14;;;;;;;;;16.25;14.75;;;;;6.09;64.49;102767.03;5080253;27;45492;-55
2022/01/23 10:10:40;;;;;;;;;12.50;12.00;;;;;6.08;64.46;102753.09;5080635;27;45425;-58
2022/01/23 10:13:06;;;;;;;;;13.75;13.75;;;;;6.10;64.67;102766.16;5097745;27;45473;-53
2022/01/23 10:15:32;;;;;;;;;18.50;15.25;;;;;6.01;64.47;102773.84;5090164;27;46311;-56
2022/01/23 10:18:00;;;;;;;;;18.75;15.00;;;;;6.01;64.55;102772.13;5083449;27;45414;-55
2022/01/23 10:20:26;;;;;;;;;15.00;14.00;;;;;5.96;64.94;102772.06;5090324;27;45365;-54
2022/01/23 10:22:54;;;;;;;;;15.00;13.75;;;;;6.00;65.02;102772.97;5080443;27;45565;-55
2022/01/23 10:25:23;;;;;;;;;15.25;14.50;;;;;6.03;64.86;102775.66;5085999;27;46239;-56
2022/01/23 10:28:03;;;;;;;;;17.50;14.00;;;;;6.03;64.89;102773.03;5086571;27;45555;-56
2022/01/23 10:30:33;;;;;;;;;16.25;15.50;;;;;6.08;64.67;102767.91;5081257;27;45486;-54
2022/01/23 10:33:26;;;;;;;;;14.75;14.50;;;;;6.05;64.98;102760.00;5086227;27;45426;-54
2022/01/23 10:35:52;;;;;;;;;15.50;14.50;;;;;5.94;64.72;102731.97;5090828;27;46224;-58
2022/01/23 10:38:18;;;;;;;;;20.25;15.75;;;;;6.19;64.62;102764.63;5084151;27;45615;-58
2022/01/23 10:40:50;;;;;;;;;19.25;14.25;;;;;6.11;64.48;102750.53;5088683;27;45558;-63
2022/01/23 10:48:36;;;;;;;;;19.00;13.50;;;;;6.13;64.93;102754.06;5095930;27;45410;-58
2022/01/23 10:51:19;;;;;;;;;15.75;14.00;;;;;6.22;64.90;102761.19;5090027;27;45574;-65
2022/01/23 10:54:02;;;;;;;;;19.75;14.50;;;;;6.19;64.90;102754.16;5076262;27;45614;-59
2022/01/23 10:56:32;;;;;;;;;19.50;17.50;;;;;6.14;64.93;102745.38;5094911;27;46594;-59
2022/01/23 10:59:10;;;;;;;;;9.75;8.75;;;;;6.10;64.91;102753.09;5086149;27;45527;-60
2022/01/23 11:01:37;;;;;;;;;13.50;13.00;;;;;6.13;65.23;102754.06;5071285;27;45658;-60
2022/01/23 11:04:04;;;;;;;;;14.00;11.75;;;;;6.16;64.36;102748.00;5096811;27;45688;-63
2022/01/23 11:06:29;;;;;;;;;17.00;11.25;;;;;6.20;64.84;102739.38;5092580;27;45401;-60
2022/01/23 11:09:09;;;;;;;;;19.00;14.75;;;;;6.18;64.32;102735.88;5076719;27;45446;-61
2022/01/23 11:11:45;;;;;;;;;9.75;9.75;;;;;6.14;64.32;102747.09;5095020;27;45521;-63
2022/01/23 11:19:46;;;;;;;;;18.00;16.25;;;;;6.13;64.21;102734.91;5085273;27;45461;-65
2022/01/23 11:22:22;;;;;;;;;14.00;14.00;;;;;6.16;63.97;102730.59;5095330;27;45539;-56
2022/01/23 11:24:49;;;;;;;;;14.25;13.75;;;;;6.15;64.26;102725.34;5095228;27;45400;-64
2022/01/23 11:27:20;;;;;;;;;16.25;14.00;;;;;6.15;64.63;102725.34;5090770;27;45645;-61
2022/01/23 11:29:58;;;;;;;;;18.50;17.00;;;;;6.15;64.46;102715.78;5091710;27;45382;-59
2022/01/23 11:32:28;;;;;;;;;16.25;12.25;;;;;6.11;64.46;102713.97;5076373;27;45413;-59
2022/01/23 11:35:01;;;;;;;;;14.75;14.25;;;;;6.10;64.55;102717.44;5066425;27;45470;-59
2022/01/23 11:37:26;;;;;;;;;17.25;16.75;;;;;6.15;64.67;102720.13;5084997;27;45432;-59
2022/01/23 11:39:58;;;;;;;;;18.00;14.75;;;;;6.17;64.55;102718.41;5088022;27;45529;-57
2022/01/23 11:53:47;;;;;;;;;16.50;14.25;;;;;6.14;64.51;102706.19;5093365;27;45420;-59
2022/01/23 11:56:41;;;;;;;;;15.00;12.50;;;;;6.11;63.97;102708.75;5078684;27;45442;-53
2022/01/23 11:59:09;;;;;;;;;18.00;16.00;;;;;6.12;63.86;102701.78;5077529;27;48239;-53
2022/01/23 12:01:35;;;;;;;;;14.50;14.50;;;;;6.12;63.66;102693.94;5082674;27;45494;-54
2022/01/23 12:04:07;;;;;;;;;526.33;454.67;;;;;6.18;65.38;102689.72;5076214;27;45607;-56
2022/01/23 12:06:37;;;;;;;;;356.00;324.75;;;;;6.27;64.69;102686.38;5091101;27;45570;-53
2022/01/23 12:09:17;;;;;;;;;19.00;17.75;;;;;6.26;63.62;102682.00;5077239;27;46072;-54
2022/01/23 12:17:18;;;;;;;;;14.50;11.00;;;;;6.25;63.00;102675.00;5094466;27;45694;-52
2022/01/23 12:19:57;;;;;;;;;20.50;14.00;;;;;6.26;63.16;102671.56;5088348;27;45558;-53
2022/01/23 12:22:33;;;;;;;;;13.75;11.50;;;;;6.23;62.86;102663.63;5094323;27;45313;-53
2022/01/23 12:25:07;;;;;;;;;14.50;14.25;;;;;6.22;62.85;102671.47;5099027;27;45402;-54
2022/01/23 12:27:33;;;;;;;;;17.50;14.25;;;;;6.19;63.08;102656.63;5088962;27;45361;-54
2022/01/23 12:30:31;;;;;;;;;16.50;14.75;;;;;6.15;63.51;102649.56;5094068;27;46116;-56
2022/01/23 12:33:42;;;;;;;;;18.25;14.75;;;;;6.20;63.54;102646.19;5087791;27;45472;-54
2022/01/23 12:36:23;;;;;;;;;18.50;16.25;;;;;6.24;63.73;102652.34;5079019;27;45390;-55
2022/01/23 12:38:53;;;;;;;;;13.50;13.50;;;;;6.25;63.11;102648.00;5080205;27;45433;-54
2022/01/23 12:41:23;;;;;;;;;18.00;16.50;;;;;6.19;63.64;102644.44;5094831;27;46612;-54
2022/01/23 12:43:58;;;;;;;;;16.50;15.00;;;;;6.17;64.06;102640.03;5090164;27;45580;-50
2022/01/23 12:46:39;;;;;;;;;19.00;16.25;;;;;6.20;63.86;102634.84;5076142;27;45491;-50
2022/01/23 12:49:26;;;;;;;;;68.00;53.75;;;;;6.22;64.25;102635.75;5078954;27;45512;-55
2022/01/23 12:52:11;;;;;;;;;20.75;18.50;;;;;6.22;63.36;102622.69;5097403;27;45527;-47
2022/01/23 12:54:57;;;;;;;;;15.25;15.00;;;;;6.22;63.75;102621.81;5095284;27;45592;-50
2022/01/23 12:57:38;;;;;;;;;18.50;15.00;;;;;6.20;63.97;102629.63;5095036;27;45409;-47
2022/01/23 13:00:22;;;;;;;;;23.50;19.25;;;;;6.19;63.78;102607.84;5078528;27;45610;-49
2022/01/23 13:02:51;;;;;;;;;24.25;20.00;;;;;6.30;63.58;102615.84;5094975;27;45629;-53
2022/01/23 13:05:17;;;;;;;;;17.75;15.25;;;;;6.28;63.82;102616.69;5097315;27;45511;-51
2022/01/23 13:08:06;;;;;;;;;16.00;14.75;;;;;6.23;63.98;102602.66;5096020;27;45473;-53
2022/01/23 13:13:26;;;;;;;;;25.50;21.00;;;;;6.36;63.83;102600.25;5096835;27;45471;-51
2022/01/23 13:34:57;;;;;;;;;19.75;17.75;;;;;6.38;63.94;102579.38;5092644;27;45460;-52
2022/01/23 13:37:30;;;;;;;;;19.75;18.25;;;;;6.38;63.53;102582.00;5075021;27;45817;-49
2022/01/23 13:40:03;;;;;;;;;24.00;20.00;;;;;6.30;63.87;102573.16;5097220;27;45436;-49
2022/01/23 13:53:25;;;;;;;;;19.25;18.25;;;;;6.41;63.63;102556.78;5097254;27;45487;-50
2022/01/23 13:58:40;;;;;;;;;21.00;17.25;;;;;6.41;63.59;102543.69;5097091;27;45492;-51
2022/01/23 14:03:53;;;;;;;;;20.50;18.25;;;;;6.38;64.06;102532.34;5097236;27;45455;-50
2022/01/23 14:06:18;;;;;;;;;27.50;23.75;;;;;6.42;63.34;102541.97;5091413;27;45553;-49
2022/01/23 14:09:00;;;;;;;;;18.75;18.25;;;;;6.35;63.52;102527.94;5096549;27;45574;-51
2022/01/23 14:11:27;;;;;;;;;17.75;16.25;;;;;6.44;63.95;102542.00;5096708;27;45489;-51
2022/01/23 14:13:52;;;;;;;;;21.25;19.50;;;;;6.46;63.42;102532.44;5096541;27;45406;-50
2022/01/23 14:16:25;;;;;;;;;22.00;21.00;;;;;6.51;63.76;102530.78;5096470;27;46043;-52
2022/01/23 14:18:51;;;;;;;;;21.75;19.75;;;;;6.52;63.50;102528.16;5096730;27;45587;-51
2022/01/23 14:21:18;;;;;;;;;23.75;22.50;;;;;6.54;63.27;102526.44;5096556;27;45449;-51
2022/01/23 14:23:52;;;;;;;;;18.75;18.75;;;;;6.47;63.39;102519.38;5096328;27;45492;-50
2022/01/23 14:26:18;;;;;;;;;17.75;16.50;;;;;6.47;62.86;102527.22;5092215;27;45388;-50
2022/01/23 14:28:47;;;;;;;;;20.00;17.25;;;;;6.48;63.29;102520.28;5096337;27;45480;-50
2022/01/23 14:31:20;;;;;;;;;20.25;18.00;;;;;6.47;63.48;102527.22;5096945;27;45533;-51
2022/01/23 14:33:51;;;;;;;;;23.25;18.00;;;;;6.49;63.18;102522.03;5093108;27;45576;-50
2022/01/23 14:36:21;;;;;;;;;18.50;18.00;;;;;6.46;63.08;102515.03;5091457;27;46694;-52
2022/01/23 14:39:15;;;;;;;;;24.00;20.50;;;;;6.33;62.85;102487.84;5095493;27;45389;-50
2022/01/23 14:41:46;;;;;;;;;19.50;17.25;;;;;6.51;63.13;102515.09;5080774;27;45490;-50
2022/01/23 14:44:20;;;;;;;;;19.25;19.00;;;;;6.51;63.09;102517.69;5094867;27;45432;-53
2022/01/23 14:46:52;;;;;;;;;26.50;24.25;;;;;6.49;62.88;102515.06;5094293;27;46600;-52
2022/01/23 14:49:23;;;;;;;;;27.75;23.75;;;;;6.55;62.52;102509.88;5092583;27;45458;-51
2022/01/23 14:51:49;;;;;;;;;21.25;18.50;;;;;6.58;62.57;102509.94;5094537;27;45473;-52
2022/01/23 14:54:17;;;;;;;;;22.50;19.50;;;;;6.56;62.61;102509.06;5077501;27;45559;-49
2022/01/23 14:56:42;;;;;;;;;17.75;16.00;;;;;6.56;62.25;102506.44;5095537;27;45469;-49
2022/01/23 14:59:10;;;;;;;;;20.25;20.25;;;;;6.60;62.06;102502.97;5096328;27;45365;-49
2022/01/23 15:01:36;;;;;;;;;22.75;20.75;;;;;6.59;62.21;102511.69;5091908;27;45432;-49